Terminal Aerodrome Forecast
Issued by NWS

Home | Current Version | Previous Version | Graphics & Text | Print | Product List | Glossary Off
Versions: 1 2 3 4 5 6 7 8 9 10 11 12 13

000
FTUS45 KGGW 300500
TAFSDY
TAF
KSDY 300527Z 3006/3106 00000KT P6SM SKC
     FM300900 16005KT 4SM BR SCT005
     FM301400 16010KT P6SM BKN200
     FM302200 30010KT P6SM VCTS SCT050CB BKN100
     FM310500 28005KT P6SM BKN250
      AMD LTD TO CLD VIS AND WIND=

USA.gov is the U.S. government's official web portal to all federal, state and local government web resources and services.